sensor_id;sensor_type;location;lat;lon;timestamp;P1;durP1;ratioP1;P2;durP2;ratioP2
27333;SDS011;14817;57.104;-2.094;2022-12-20T00:01:19;7.82;;;1.80;;
27333;SDS011;14817;57.104;-2.094;2022-12-20T00:03:51;3.78;;;1.33;;
27333;SDS011;14817;57.104;-2.094;2022-12-20T00:06:19;11.65;;;1.55;;
27333;SDS011;14817;57.104;-2.094;2022-12-20T00:08:46;10.73;;;1.67;;
27333;SDS011;14817;57.104;-2.094;2022-12-20T00:11:20;7.97;;;1.85;;
27333;SDS011;14817;57.104;-2.094;2022-12-20T00:13:46;11.88;;;2.15;;
27333;SDS011;14817;57.104;-2.094;2022-12-20T00:16:14;11.32;;;1.42;;
27333;SDS011;14817;57.104;-2.094;2022-12-20T00:18:43;8.05;;;1.55;;
27333;SDS011;14817;57.104;-2.094;2022-12-20T00:21:11;11.43;;;2.30;;
27333;SDS011;14817;57.104;-2.094;2022-12-20T00:23:39;9.73;;;2.25;;
27333;SDS011;14817;57.104;-2.094;2022-12-20T00:26:08;12.10;;;2.85;;
27333;SDS011;14817;57.104;-2.094;2022-12-20T00:28:37;22.67;;;2.85;;
27333;SDS011;14817;57.104;-2.094;2022-12-20T00:31:05;20.50;;;2.70;;
27333;SDS011;14817;57.104;-2.094;2022-12-20T00:33:33;10.05;;;1.85;;
27333;SDS011;14817;57.104;-2.094;2022-12-20T00:36:01;16.92;;;3.42;;
27333;SDS011;14817;57.104;-2.094;2022-12-20T00:38:31;15.02;;;2.72;;
27333;SDS011;14817;57.104;-2.094;2022-12-20T00:41:02;10.25;;;1.98;;
27333;SDS011;14817;57.104;-2.094;2022-12-20T00:43:31;22.58;;;3.00;;
27333;SDS011;14817;57.104;-2.094;2022-12-20T00:45:59;14.45;;;3.20;;
27333;SDS011;14817;57.104;-2.094;2022-12-20T00:48:27;15.57;;;2.95;;
27333;SDS011;14817;57.104;-2.094;2022-12-20T00:50:58;10.15;;;2.22;;
27333;SDS011;14817;57.104;-2.094;2022-12-20T00:53:27;18.30;;;3.15;;
27333;SDS011;14817;57.104;-2.094;2022-12-20T00:55:54;9.95;;;2.53;;
27333;SDS011;14817;57.104;-2.094;2022-12-20T00:58:21;18.27;;;3.10;;
27333;SDS011;14817;57.104;-2.094;2022-12-20T01:00:48;13.70;;;2.53;;
27333;SDS011;14817;57.104;-2.094;2022-12-20T01:03:22;17.25;;;3.03;;
27333;SDS011;14817;57.104;-2.094;2022-12-20T01:05:52;13.98;;;2.42;;
27333;SDS011;14817;57.104;-2.094;2022-12-20T01:08:21;13.05;;;2.40;;
27333;SDS011;14817;57.104;-2.094;2022-12-20T01:11:03;16.65;;;3.35;;
27333;SDS011;14817;57.104;-2.094;2022-12-20T01:13:33;22.90;;;3.15;;
27333;SDS011;14817;57.104;-2.094;2022-12-20T01:16:12;10.05;;;2.40;;
27333;SDS011;14817;57.104;-2.094;2022-12-20T01:18:41;6.40;;;1.30;;
27333;SDS011;14817;57.104;-2.094;2022-12-20T01:21:09;10.70;;;2.13;;
27333;SDS011;14817;57.104;-2.094;2022-12-20T01:23:39;13.35;;;2.30;;
27333;SDS011;14817;57.104;-2.094;2022-12-20T01:26:07;8.80;;;1.83;;
27333;SDS011;14817;57.104;-2.094;2022-12-20T01:31:06;7.85;;;1.45;;
27333;SDS011;14817;57.104;-2.094;2022-12-20T01:33:34;7.90;;;1.65;;
27333;SDS011;14817;57.104;-2.094;2022-12-20T01:36:02;5.35;;;1.25;;
27333;SDS011;14817;57.104;-2.094;2022-12-20T01:38:31;18.15;;;2.75;;
27333;SDS011;14817;57.104;-2.094;2022-12-20T01:40:58;13.50;;;1.58;;
27333;SDS011;14817;57.104;-2.094;2022-12-20T01:43:31;7.93;;;1.50;;
27333;SDS011;14817;57.104;-2.094;2022-12-20T01:46:15;10.75;;;2.00;;
27333;SDS011;14817;57.104;-2.094;2022-12-20T01:48:45;18.17;;;2.45;;
27333;SDS011;14817;57.104;-2.094;2022-12-20T01:51:24;13.45;;;2.50;;
27333;SDS011;14817;57.104;-2.094;2022-12-20T01:53:59;9.70;;;1.42;;
27333;SDS011;14817;57.104;-2.094;2022-12-20T01:56:30;9.80;;;1.98;;
27333;SDS011;14817;57.104;-2.094;2022-12-20T01:58:57;9.00;;;1.75;;
27333;SDS011;14817;57.104;-2.094;2022-12-20T02:01:24;7.18;;;1.88;;
27333;SDS011;14817;57.104;-2.094;2022-12-20T02:03:53;13.65;;;1.70;;
27333;SDS011;14817;57.104;-2.094;2022-12-20T02:06:22;9.70;;;2.15;;
27333;SDS011;14817;57.104;-2.094;2022-12-20T02:08:52;12.98;;;2.15;;
27333;SDS011;14817;57.104;-2.094;2022-12-20T02:30:35;11.82;;;2.25;;
27333;SDS011;14817;57.104;-2.094;2022-12-20T02:33:09;9.45;;;1.55;;
27333;SDS011;14817;57.104;-2.094;2022-12-20T02:35:39;13.88;;;2.03;;
27333;SDS011;14817;57.104;-2.094;2022-12-20T02:41:06;9.40;;;1.50;;
27333;SDS011;14817;57.104;-2.094;2022-12-20T02:43:38;6.90;;;1.30;;
27333;SDS011;14817;57.104;-2.094;2022-12-20T02:46:28;8.95;;;1.13;;
27333;SDS011;14817;57.104;-2.094;2022-12-20T02:48:58;11.85;;;1.90;;
27333;SDS011;14817;57.104;-2.094;2022-12-20T02:51:28;9.45;;;1.65;;
27333;SDS011;14817;57.104;-2.094;2022-12-20T02:53:58;7.15;;;1.40;;
27333;SDS011;14817;57.104;-2.094;2022-12-20T02:56:32;7.22;;;1.35;;
27333;SDS011;14817;57.104;-2.094;2022-12-20T02:59:12;5.43;;;1.00;;
27333;SDS011;14817;57.104;-2.094;2022-12-20T03:01:44;6.10;;;0.90;;
27333;SDS011;14817;57.104;-2.094;2022-12-20T03:04:16;4.07;;;0.88;;
27333;SDS011;14817;57.104;-2.094;2022-12-20T03:09:22;5.47;;;0.98;;
27333;SDS011;14817;57.104;-2.094;2022-12-20T03:11:50;11.18;;;1.83;;
27333;SDS011;14817;57.104;-2.094;2022-12-20T03:14:17;13.07;;;1.40;;
27333;SDS011;14817;57.104;-2.094;2022-12-20T03:16:46;5.75;;;1.42;;
27333;SDS011;14817;57.104;-2.094;2022-12-20T03:19:13;6.53;;;0.95;;
27333;SDS011;14817;57.104;-2.094;2022-12-20T03:21:40;9.15;;;1.25;;
27333;SDS011;14817;57.104;-2.094;2022-12-20T03:24:07;10.27;;;2.08;;
27333;SDS011;14817;57.104;-2.094;2022-12-20T03:26:36;3.70;;;1.05;;
27333;SDS011;14817;57.104;-2.094;2022-12-20T03:29:03;10.70;;;2.00;;
27333;SDS011;14817;57.104;-2.094;2022-12-20T03:31:30;8.30;;;1.27;;
27333;SDS011;14817;57.104;-2.094;2022-12-20T03:33:57;6.90;;;1.30;;
27333;SDS011;14817;57.104;-2.094;2022-12-20T03:36:25;11.05;;;1.40;;
27333;SDS011;14817;57.104;-2.094;2022-12-20T03:38:58;13.23;;;1.60;;
27333;SDS011;14817;57.104;-2.094;2022-12-20T03:41:28;10.30;;;1.85;;
27333;SDS011;14817;57.104;-2.094;2022-12-20T03:43:55;15.23;;;2.35;;
27333;SDS011;14817;57.104;-2.094;2022-12-20T03:46:24;11.25;;;2.40;;
27333;SDS011;14817;57.104;-2.094;2022-12-20T03:48:51;7.78;;;1.98;;
27333;SDS011;14817;57.104;-2.094;2022-12-20T03:51:18;15.27;;;1.90;;
27333;SDS011;14817;57.104;-2.094;2022-12-20T03:53:45;11.57;;;1.67;;
27333;SDS011;14817;57.104;-2.094;2022-12-20T03:56:13;20.23;;;3.08;;
27333;SDS011;14817;57.104;-2.094;2022-12-20T03:58:41;8.90;;;2.10;;
27333;SDS011;14817;57.104;-2.094;2022-12-20T04:01:21;9.48;;;3.05;;
27333;SDS011;14817;57.104;-2.094;2022-12-20T04:03:51;8.88;;;1.27;;
27333;SDS011;14817;57.104;-2.094;2022-12-20T04:06:18;12.00;;;1.75;;
27333;SDS011;14817;57.104;-2.094;2022-12-20T04:08:46;11.43;;;1.77;;
27333;SDS011;14817;57.104;-2.094;2022-12-20T04:11:20;23.25;;;3.25;;
27333;SDS011;14817;57.104;-2.094;2022-12-20T04:14:09;15.25;;;2.63;;
27333;SDS011;14817;57.104;-2.094;2022-12-20T04:16:36;14.52;;;2.88;;
27333;SDS011;14817;57.104;-2.094;2022-12-20T04:19:04;22.27;;;3.30;;
27333;SDS011;14817;57.104;-2.094;2022-12-20T04:21:39;16.98;;;3.08;;
27333;SDS011;14817;57.104;-2.094;2022-12-20T04:24:06;13.38;;;2.72;;
27333;SDS011;14817;57.104;-2.094;2022-12-20T04:26:46;12.43;;;2.53;;
27333;SDS011;14817;57.104;-2.094;2022-12-20T04:29:15;16.88;;;3.60;;
27333;SDS011;14817;57.104;-2.094;2022-12-20T04:31:43;11.15;;;2.10;;
27333;SDS011;14817;57.104;-2.094;2022-12-20T04:34:09;25.10;;;3.22;;
27333;SDS011;14817;57.104;-2.094;2022-12-20T04:36:37;24.00;;;3.55;;
27333;SDS011;14817;57.104;-2.094;2022-12-20T04:39:09;11.65;;;2.42;;
27333;SDS011;14817;57.104;-2.094;2022-12-20T04:41:56;10.75;;;2.17;;
27333;SDS011;14817;57.104;-2.094;2022-12-20T04:44:39;13.43;;;3.03;;
27333;SDS011;14817;57.104;-2.094;2022-12-20T04:47:08;21.90;;;2.78;;
27333;SDS011;14817;57.104;-2.094;2022-12-20T04:49:36;18.30;;;2.50;;
27333;SDS011;14817;57.104;-2.094;2022-12-20T04:52:03;21.75;;;2.33;;
27333;SDS011;14817;57.104;-2.094;2022-12-20T04:54:49;15.57;;;2.50;;
27333;SDS011;14817;57.104;-2.094;2022-12-20T04:57:21;10.00;;;2.20;;
27333;SDS011;14817;57.104;-2.094;2022-12-20T04:59:48;10.95;;;2.08;;
27333;SDS011;14817;57.104;-2.094;2022-12-20T05:02:15;15.77;;;2.20;;
27333;SDS011;14817;57.104;-2.094;2022-12-20T05:05:02;19.10;;;3.60;;
27333;SDS011;14817;57.104;-2.094;2022-12-20T05:07:35;23.50;;;3.15;;
27333;SDS011;14817;57.104;-2.094;2022-12-20T05:10:02;17.83;;;2.72;;
27333;SDS011;14817;57.104;-2.094;2022-12-20T05:12:30;14.88;;;2.50;;
27333;SDS011;14817;57.104;-2.094;2022-12-20T05:14:59;17.55;;;2.97;;
27333;SDS011;14817;57.104;-2.094;2022-12-20T05:17:25;19.58;;;3.00;;
27333;SDS011;14817;57.104;-2.094;2022-12-20T05:19:52;16.23;;;2.67;;
27333;SDS011;14817;57.104;-2.094;2022-12-20T05:22:20;24.02;;;3.75;;
27333;SDS011;14817;57.104;-2.094;2022-12-20T05:25:09;17.05;;;2.33;;
27333;SDS011;14817;57.104;-2.094;2022-12-20T05:27:59;25.30;;;2.83;;
27333;SDS011;14817;57.104;-2.094;2022-12-20T05:30:30;14.25;;;2.72;;
27333;SDS011;14817;57.104;-2.094;2022-12-20T05:32:57;19.83;;;4.60;;
27333;SDS011;14817;57.104;-2.094;2022-12-20T05:35:25;17.00;;;3.25;;
27333;SDS011;14817;57.104;-2.094;2022-12-20T05:37:59;21.48;;;2.90;;
27333;SDS011;14817;57.104;-2.094;2022-12-20T05:40:26;25.02;;;2.80;;
27333;SDS011;14817;57.104;-2.094;2022-12-20T05:42:54;18.60;;;2.60;;
27333;SDS011;14817;57.104;-2.094;2022-12-20T05:45:28;22.23;;;3.17;;
27333;SDS011;14817;57.104;-2.094;2022-12-20T05:48:01;22.58;;;2.65;;
27333;SDS011;14817;57.104;-2.094;2022-12-20T05:50:30;21.27;;;3.00;;
27333;SDS011;14817;57.104;-2.094;2022-12-20T05:53:20;26.55;;;3.50;;
27333;SDS011;14817;57.104;-2.094;2022-12-20T05:55:51;15.35;;;2.65;;
27333;SDS011;14817;57.104;-2.094;2022-12-20T05:58:24;11.05;;;2.20;;
27333;SDS011;14817;57.104;-2.094;2022-12-20T06:00:56;17.98;;;3.00;;
27333;SDS011;14817;57.104;-2.094;2022-12-20T06:03:25;18.15;;;2.72;;
27333;SDS011;14817;57.104;-2.094;2022-12-20T06:05:53;14.63;;;3.90;;
27333;SDS011;14817;57.104;-2.094;2022-12-20T06:08:25;22.63;;;3.10;;
27333;SDS011;14817;57.104;-2.094;2022-12-20T06:10:54;13.50;;;2.47;;
27333;SDS011;14817;57.104;-2.094;2022-12-20T06:13:22;19.85;;;3.08;;
27333;SDS011;14817;57.104;-2.094;2022-12-20T06:15:51;21.42;;;3.05;;
27333;SDS011;14817;57.104;-2.094;2022-12-20T06:18:19;20.70;;;2.53;;
27333;SDS011;14817;57.104;-2.094;2022-12-20T06:20:50;18.63;;;2.08;;
27333;SDS011;14817;57.104;-2.094;2022-12-20T06:28:45;20.23;;;3.13;;
27333;SDS011;14817;57.104;-2.094;2022-12-20T06:31:23;28.88;;;4.03;;
27333;SDS011;14817;57.104;-2.094;2022-12-20T06:33:52;23.58;;;5.53;;
27333;SDS011;14817;57.104;-2.094;2022-12-20T06:36:23;25.92;;;3.50;;
27333;SDS011;14817;57.104;-2.094;2022-12-20T06:38:50;21.95;;;3.40;;
27333;SDS011;14817;57.104;-2.094;2022-12-20T06:41:17;23.05;;;4.07;;
27333;SDS011;14817;57.104;-2.094;2022-12-20T06:43:44;13.77;;;3.70;;
27333;SDS011;14817;57.104;-2.094;2022-12-20T06:46:11;21.17;;;4.97;;
27333;SDS011;14817;57.104;-2.094;2022-12-20T06:48:39;16.02;;;3.50;;
27333;SDS011;14817;57.104;-2.094;2022-12-20T06:51:07;22.08;;;3.53;;
27333;SDS011;14817;57.104;-2.094;2022-12-20T06:53:34;21.55;;;3.58;;
27333;SDS011;14817;57.104;-2.094;2022-12-20T06:56:01;34.03;;;6.15;;
27333;SDS011;14817;57.104;-2.094;2022-12-20T06:58:30;19.25;;;3.75;;
27333;SDS011;14817;57.104;-2.094;2022-12-20T07:00:57;25.17;;;3.55;;
27333;SDS011;14817;57.104;-2.094;2022-12-20T07:03:24;23.75;;;4.20;;
27333;SDS011;14817;57.104;-2.094;2022-12-20T07:05:51;20.33;;;4.38;;
27333;SDS011;14817;57.104;-2.094;2022-12-20T07:08:21;20.52;;;2.90;;
27333;SDS011;14817;57.104;-2.094;2022-12-20T07:10:48;26.85;;;3.50;;
27333;SDS011;14817;57.104;-2.094;2022-12-20T07:13:15;19.15;;;3.15;;
27333;SDS011;14817;57.104;-2.094;2022-12-20T07:15:41;17.73;;;3.40;;
27333;SDS011;14817;57.104;-2.094;2022-12-20T07:18:08;14.55;;;2.58;;
27333;SDS011;14817;57.104;-2.094;2022-12-20T07:20:36;20.58;;;3.17;;
27333;SDS011;14817;57.104;-2.094;2022-12-20T07:23:03;22.85;;;3.53;;
27333;SDS011;14817;57.104;-2.094;2022-12-20T07:25:29;19.95;;;3.45;;
27333;SDS011;14817;57.104;-2.094;2022-12-20T07:27:56;20.58;;;3.83;;
27333;SDS011;14817;57.104;-2.094;2022-12-20T07:30:23;16.42;;;3.03;;
27333;SDS011;14817;57.104;-2.094;2022-12-20T07:32:51;12.80;;;2.67;;
27333;SDS011;14817;57.104;-2.094;2022-12-20T07:35:18;15.10;;;3.42;;
27333;SDS011;14817;57.104;-2.094;2022-12-20T07:37:44;17.63;;;2.80;;
27333;SDS011;14817;57.104;-2.094;2022-12-20T07:40:11;19.40;;;3.83;;
27333;SDS011;14817;57.104;-2.094;2022-12-20T07:42:40;16.25;;;2.58;;
27333;SDS011;14817;57.104;-2.094;2022-12-20T07:45:14;22.95;;;3.28;;
27333;SDS011;14817;57.104;-2.094;2022-12-20T07:47:41;17.40;;;3.55;;
27333;SDS011;14817;57.104;-2.094;2022-12-20T07:50:09;17.50;;;3.17;;
27333;SDS011;14817;57.104;-2.094;2022-12-20T07:52:37;15.35;;;3.28;;
27333;SDS011;14817;57.104;-2.094;2022-12-20T07:55:07;16.13;;;2.60;;
27333;SDS011;14817;57.104;-2.094;2022-12-20T07:57:46;16.20;;;2.53;;
27333;SDS011;14817;57.104;-2.094;2022-12-20T08:00:16;16.55;;;3.58;;
27333;SDS011;14817;57.104;-2.094;2022-12-20T08:02:47;24.50;;;3.45;;
27333;SDS011;14817;57.104;-2.094;2022-12-20T08:05:27;13.95;;;2.35;;
27333;SDS011;14817;57.104;-2.094;2022-12-20T08:07:55;18.15;;;2.70;;
27333;SDS011;14817;57.104;-2.094;2022-12-20T08:10:25;22.40;;;2.65;;
27333;SDS011;14817;57.104;-2.094;2022-12-20T08:12:53;19.23;;;3.17;;
27333;SDS011;14817;57.104;-2.094;2022-12-20T08:15:21;19.25;;;2.60;;
27333;SDS011;14817;57.104;-2.094;2022-12-20T08:17:48;12.95;;;2.80;;
27333;SDS011;14817;57.104;-2.094;2022-12-20T08:20:16;15.63;;;3.17;;
27333;SDS011;14817;57.104;-2.094;2022-12-20T08:22:43;18.77;;;4.88;;
27333;SDS011;14817;57.104;-2.094;2022-12-20T08:25:10;24.08;;;3.30;;
27333;SDS011;14817;57.104;-2.094;2022-12-20T08:27:37;17.42;;;3.25;;
27333;SDS011;14817;57.104;-2.094;2022-12-20T08:30:04;21.45;;;3.03;;
27333;SDS011;14817;57.104;-2.094;2022-12-20T08:32:32;15.88;;;2.65;;
27333;SDS011;14817;57.104;-2.094;2022-12-20T08:34:59;17.45;;;2.72;;
27333;SDS011;14817;57.104;-2.094;2022-12-20T08:37:26;16.73;;;2.40;;
27333;SDS011;14817;57.104;-2.094;2022-12-20T08:39:53;13.63;;;3.15;;
27333;SDS011;14817;57.104;-2.094;2022-12-20T08:42:20;20.50;;;3.58;;
27333;SDS011;14817;57.104;-2.094;2022-12-20T08:44:47;16.80;;;2.92;;
27333;SDS011;14817;57.104;-2.094;2022-12-20T08:47:13;23.50;;;3.40;;
27333;SDS011;14817;57.104;-2.094;2022-12-20T08:49:40;15.50;;;2.95;;
27333;SDS011;14817;57.104;-2.094;2022-12-20T08:52:13;16.85;;;2.33;;
27333;SDS011;14817;57.104;-2.094;2022-12-20T08:54:40;13.13;;;2.20;;
27333;SDS011;14817;57.104;-2.094;2022-12-20T08:57:07;20.10;;;3.90;;
27333;SDS011;14817;57.104;-2.094;2022-12-20T08:59:33;19.48;;;3.42;;
27333;SDS011;14817;57.104;-2.094;2022-12-20T09:02:00;18.60;;;3.63;;
27333;SDS011;14817;57.104;-2.094;2022-12-20T09:04:27;17.02;;;2.95;;
27333;SDS011;14817;57.104;-2.094;2022-12-20T09:06:54;14.57;;;2.50;;
27333;SDS011;14817;57.104;-2.094;2022-12-20T09:09:21;22.63;;;3.88;;
27333;SDS011;14817;57.104;-2.094;2022-12-20T09:11:47;11.15;;;3.10;;
27333;SDS011;14817;57.104;-2.094;2022-12-20T09:14:14;25.38;;;3.97;;
27333;SDS011;14817;57.104;-2.094;2022-12-20T09:16:41;20.83;;;3.20;;
27333;SDS011;14817;57.104;-2.094;2022-12-20T09:19:09;24.77;;;3.90;;
27333;SDS011;14817;57.104;-2.094;2022-12-20T09:21:38;25.45;;;4.03;;
27333;SDS011;14817;57.104;-2.094;2022-12-20T09:24:05;25.48;;;3.85;;
27333;SDS011;14817;57.104;-2.094;2022-12-20T09:26:32;21.83;;;4.30;;
27333;SDS011;14817;57.104;-2.094;2022-12-20T09:29:00;25.70;;;3.35;;
27333;SDS011;14817;57.104;-2.094;2022-12-20T09:31:27;28.77;;;4.50;;
27333;SDS011;14817;57.104;-2.094;2022-12-20T09:33:55;22.98;;;3.40;;
27333;SDS011;14817;57.104;-2.094;2022-12-20T09:36:24;16.80;;;3.70;;
27333;SDS011;14817;57.104;-2.094;2022-12-20T09:38:52;22.90;;;4.07;;
27333;SDS011;14817;57.104;-2.094;2022-12-20T09:44:01;14.40;;;2.70;;
27333;SDS011;14817;57.104;-2.094;2022-12-20T09:46:32;16.73;;;2.83;;
27333;SDS011;14817;57.104;-2.094;2022-12-20T09:49:00;24.60;;;4.03;;
27333;SDS011;14817;57.104;-2.094;2022-12-20T09:54:06;19.50;;;3.40;;
27333;SDS011;14817;57.104;-2.094;2022-12-20T09:59:32;20.17;;;4.00;;
27333;SDS011;14817;57.104;-2.094;2022-12-20T10:02:10;17.23;;;3.03;;
27333;SDS011;14817;57.104;-2.094;2022-12-20T10:04:59;16.73;;;3.60;;
27333;SDS011;14817;57.104;-2.094;2022-12-20T10:15:53;12.57;;;2.90;;
27333;SDS011;14817;57.104;-2.094;2022-12-20T10:20:59;16.98;;;2.70;;
27333;SDS011;14817;57.104;-2.094;2022-12-20T10:23:32;12.10;;;2.72;;
27333;SDS011;14817;57.104;-2.094;2022-12-20T10:26:08;15.00;;;2.83;;
27333;SDS011;14817;57.104;-2.094;2022-12-20T10:28:37;10.77;;;2.55;;
27333;SDS011;14817;57.104;-2.094;2022-12-20T10:31:10;16.90;;;3.08;;
27333;SDS011;14817;57.104;-2.094;2022-12-20T10:33:39;13.15;;;2.63;;
27333;SDS011;14817;57.104;-2.094;2022-12-20T10:39:04;14.95;;;2.83;;
27333;SDS011;14817;57.104;-2.094;2022-12-20T10:41:54;13.48;;;2.95;;
27333;SDS011;14817;57.104;-2.094;2022-12-20T10:44:24;16.60;;;2.88;;
27333;SDS011;14817;57.104;-2.094;2022-12-20T10:46:56;18.73;;;3.83;;
27333;SDS011;14817;57.104;-2.094;2022-12-20T10:52:00;15.75;;;4.63;;
27333;SDS011;14817;57.104;-2.094;2022-12-20T10:54:38;20.45;;;4.22;;
27333;SDS011;14817;57.104;-2.094;2022-12-20T10:57:28;22.15;;;4.05;;
27333;SDS011;14817;57.104;-2.094;2022-12-20T10:59:58;18.73;;;3.20;;
27333;SDS011;14817;57.104;-2.094;2022-12-20T11:07:37;18.63;;;3.58;;
27333;SDS011;14817;57.104;-2.094;2022-12-20T11:10:42;13.52;;;2.47;;
27333;SDS011;14817;57.104;-2.094;2022-12-20T11:13:18;18.35;;;3.70;;
27333;SDS011;14817;57.104;-2.094;2022-12-20T11:18:26;23.05;;;4.13;;
27333;SDS011;14817;57.104;-2.094;2022-12-20T11:21:22;18.25;;;3.10;;
27333;SDS011;14817;57.104;-2.094;2022-12-20T11:24:14;14.73;;;3.13;;
27333;SDS011;14817;57.104;-2.094;2022-12-20T11:27:36;21.10;;;3.38;;
27333;SDS011;14817;57.104;-2.094;2022-12-20T11:35:17;21.55;;;3.65;;
27333;SDS011;14817;57.104;-2.094;2022-12-20T11:37:53;19.83;;;3.63;;
27333;SDS011;14817;57.104;-2.094;2022-12-20T11:57:56;20.40;;;3.05;;
27333;SDS011;14817;57.104;-2.094;2022-12-20T12:00:46;19.65;;;3.20;;
27333;SDS011;14817;57.104;-2.094;2022-12-20T12:06:06;26.80;;;3.55;;
27333;SDS011;14817;57.104;-2.094;2022-12-20T12:08:39;18.42;;;3.28;;
27333;SDS011;14817;57.104;-2.094;2022-12-20T12:11:12;21.77;;;4.60;;
27333;SDS011;14817;57.104;-2.094;2022-12-20T12:20:34;21.67;;;3.22;;
27333;SDS011;14817;57.104;-2.094;2022-12-20T12:29:02;17.90;;;2.60;;
27333;SDS011;14817;57.104;-2.094;2022-12-20T12:31:37;21.77;;;4.35;;
27333;SDS011;14817;57.104;-2.094;2022-12-20T12:39:50;21.83;;;5.00;;
27333;SDS011;14817;57.104;-2.094;2022-12-20T12:45:25;18.20;;;3.05;;
27333;SDS011;14817;57.104;-2.094;2022-12-20T12:47:56;20.92;;;3.40;;
27333;SDS011;14817;57.104;-2.094;2022-12-20T12:50:29;17.75;;;5.55;;
27333;SDS011;14817;57.104;-2.094;2022-12-20T12:53:03;15.98;;;4.70;;
27333;SDS011;14817;57.104;-2.094;2022-12-20T13:00:49;15.75;;;3.17;;
27333;SDS011;14817;57.104;-2.094;2022-12-20T13:03:41;15.75;;;3.28;;
27333;SDS011;14817;57.104;-2.094;2022-12-20T13:11:30;17.50;;;3.15;;
27333;SDS011;14817;57.104;-2.094;2022-12-20T13:16:51;18.52;;;3.72;;
27333;SDS011;14817;57.104;-2.094;2022-12-20T13:19:48;13.50;;;3.00;;
27333;SDS011;14817;57.104;-2.094;2022-12-20T13:25:00;11.73;;;2.45;;
27333;SDS011;14817;57.104;-2.094;2022-12-20T13:37:59;12.05;;;1.90;;
27333;SDS011;14817;57.104;-2.094;2022-12-20T13:40:37;14.00;;;2.25;;
27333;SDS011;14817;57.104;-2.094;2022-12-20T13:43:33;9.27;;;1.45;;
27333;SDS011;14817;57.104;-2.094;2022-12-20T13:48:48;10.00;;;2.22;;
27333;SDS011;14817;57.104;-2.094;2022-12-20T13:51:21;12.30;;;2.50;;
27333;SDS011;14817;57.104;-2.094;2022-12-20T13:53:51;9.85;;;2.00;;
27333;SDS011;14817;57.104;-2.094;2022-12-20T13:58:55;9.38;;;2.90;;
27333;SDS011;14817;57.104;-2.094;2022-12-20T14:01:24;12.85;;;2.10;;
27333;SDS011;14817;57.104;-2.094;2022-12-20T14:03:52;11.30;;;1.98;;
27333;SDS011;14817;57.104;-2.094;2022-12-20T14:06:20;10.98;;;1.90;;
27333;SDS011;14817;57.104;-2.094;2022-12-20T14:08:52;7.93;;;1.45;;
27333;SDS011;14817;57.104;-2.094;2022-12-20T14:11:20;12.13;;;2.10;;
27333;SDS011;14817;57.104;-2.094;2022-12-20T14:13:59;7.70;;;1.40;;
27333;SDS011;14817;57.104;-2.094;2022-12-20T14:16:31;6.47;;;1.50;;
27333;SDS011;14817;57.104;-2.094;2022-12-20T14:19:05;6.90;;;1.48;;
27333;SDS011;14817;57.104;-2.094;2022-12-20T14:21:39;7.00;;;1.20;;
27333;SDS011;14817;57.104;-2.094;2022-12-20T14:24:13;13.25;;;2.00;;
27333;SDS011;14817;57.104;-2.094;2022-12-20T14:26:47;8.10;;;1.75;;
27333;SDS011;14817;57.104;-2.094;2022-12-20T14:29:18;7.60;;;1.83;;
27333;SDS011;14817;57.104;-2.094;2022-12-20T14:31:48;11.20;;;1.97;;
27333;SDS011;14817;57.104;-2.094;2022-12-20T14:34:30;6.97;;;2.00;;
27333;SDS011;14817;57.104;-2.094;2022-12-20T14:40:13;4.95;;;1.80;;
27333;SDS011;14817;57.104;-2.094;2022-12-20T14:47:37;11.63;;;1.60;;
27333;SDS011;14817;57.104;-2.094;2022-12-20T14:50:18;6.43;;;1.50;;
27333;SDS011;14817;57.104;-2.094;2022-12-20T14:52:49;11.25;;;2.00;;
27333;SDS011;14817;57.104;-2.094;2022-12-20T14:55:17;14.68;;;1.98;;
27333;SDS011;14817;57.104;-2.094;2022-12-20T15:10:40;9.10;;;1.20;;
27333;SDS011;14817;57.104;-2.094;2022-12-20T15:13:12;8.27;;;1.63;;
27333;SDS011;14817;57.104;-2.094;2022-12-20T15:15:40;10.05;;;1.75;;
27333;SDS011;14817;57.104;-2.094;2022-12-20T15:18:14;14.95;;;2.85;;
27333;SDS011;14817;57.104;-2.094;2022-12-20T15:20:43;6.55;;;1.35;;
27333;SDS011;14817;57.104;-2.094;2022-12-20T15:23:22;5.28;;;1.08;;
27333;SDS011;14817;57.104;-2.094;2022-12-20T15:25:49;4.57;;;1.20;;
27333;SDS011;14817;57.104;-2.094;2022-12-20T15:28:17;6.28;;;1.77;;
27333;SDS011;14817;57.104;-2.094;2022-12-20T15:30:46;9.40;;;1.55;;
27333;SDS011;14817;57.104;-2.094;2022-12-20T15:33:24;10.80;;;1.85;;
27333;SDS011;14817;57.104;-2.094;2022-12-20T15:35:52;7.45;;;1.75;;
27333;SDS011;14817;57.104;-2.094;2022-12-20T15:38:21;9.43;;;1.63;;
27333;SDS011;14817;57.104;-2.094;2022-12-20T15:41:13;7.38;;;1.42;;
27333;SDS011;14817;57.104;-2.094;2022-12-20T15:43:45;10.55;;;1.65;;
27333;SDS011;14817;57.104;-2.094;2022-12-20T15:46:12;5.63;;;1.08;;
27333;SDS011;14817;57.104;-2.094;2022-12-20T15:48:39;6.88;;;1.40;;
27333;SDS011;14817;57.104;-2.094;2022-12-20T15:51:12;9.65;;;2.00;;
27333;SDS011;14817;57.104;-2.094;2022-12-20T15:53:46;9.82;;;2.05;;
27333;SDS011;14817;57.104;-2.094;2022-12-20T15:56:17;14.23;;;1.77;;
27333;SDS011;14817;57.104;-2.094;2022-12-20T15:58:47;7.43;;;1.60;;
27333;SDS011;14817;57.104;-2.094;2022-12-20T16:01:17;8.48;;;1.90;;
27333;SDS011;14817;57.104;-2.094;2022-12-20T16:03:47;12.65;;;2.60;;
27333;SDS011;14817;57.104;-2.094;2022-12-20T16:06:15;6.70;;;1.52;;
27333;SDS011;14817;57.104;-2.094;2022-12-20T16:08:42;6.72;;;1.63;;
27333;SDS011;14817;57.104;-2.094;2022-12-20T16:11:19;9.05;;;1.45;;
27333;SDS011;14817;57.104;-2.094;2022-12-20T16:13:48;12.20;;;1.75;;
27333;SDS011;14817;57.104;-2.094;2022-12-20T16:16:16;11.30;;;2.40;;
27333;SDS011;14817;57.104;-2.094;2022-12-20T16:18:44;7.45;;;2.13;;
27333;SDS011;14817;57.104;-2.094;2022-12-20T16:21:15;7.72;;;1.50;;
27333;SDS011;14817;57.104;-2.094;2022-12-20T16:23:44;6.25;;;1.98;;
27333;SDS011;14817;57.104;-2.094;2022-12-20T16:26:19;8.02;;;2.80;;
27333;SDS011;14817;57.104;-2.094;2022-12-20T16:28:47;10.68;;;2.22;;
27333;SDS011;14817;57.104;-2.094;2022-12-20T16:31:19;12.45;;;2.53;;
27333;SDS011;14817;57.104;-2.094;2022-12-20T16:33:50;8.05;;;1.83;;
27333;SDS011;14817;57.104;-2.094;2022-12-20T16:36:17;10.73;;;2.03;;
27333;SDS011;14817;57.104;-2.094;2022-12-20T16:38:44;8.65;;;1.77;;
27333;SDS011;14817;57.104;-2.094;2022-12-20T16:41:12;5.78;;;1.35;;
27333;SDS011;14817;57.104;-2.094;2022-12-20T16:43:44;7.18;;;1.38;;
27333;SDS011;14817;57.104;-2.094;2022-12-20T16:46:13;7.72;;;1.80;;
27333;SDS011;14817;57.104;-2.094;2022-12-20T16:48:46;11.70;;;1.73;;
27333;SDS011;14817;57.104;-2.094;2022-12-20T16:51:24;6.18;;;1.42;;
27333;SDS011;14817;57.104;-2.094;2022-12-20T16:53:54;7.65;;;1.65;;
27333;SDS011;14817;57.104;-2.094;2022-12-20T16:56:43;8.60;;;1.52;;
27333;SDS011;14817;57.104;-2.094;2022-12-20T16:59:09;12.07;;;3.60;;
27333;SDS011;14817;57.104;-2.094;2022-12-20T17:01:48;8.95;;;2.13;;
27333;SDS011;14817;57.104;-2.094;2022-12-20T17:04:21;9.88;;;2.22;;
27333;SDS011;14817;57.104;-2.094;2022-12-20T17:06:48;8.88;;;2.13;;
27333;SDS011;14817;57.104;-2.094;2022-12-20T17:09:16;14.35;;;2.03;;
27333;SDS011;14817;57.104;-2.094;2022-12-20T17:12:00;12.77;;;2.42;;
27333;SDS011;14817;57.104;-2.094;2022-12-20T17:14:29;4.72;;;1.50;;
27333;SDS011;14817;57.104;-2.094;2022-12-20T17:16:56;8.20;;;1.67;;
27333;SDS011;14817;57.104;-2.094;2022-12-20T17:19:23;5.15;;;1.20;;
27333;SDS011;14817;57.104;-2.094;2022-12-20T17:21:50;11.05;;;2.00;;
27333;SDS011;14817;57.104;-2.094;2022-12-20T17:24:42;10.43;;;2.53;;
27333;SDS011;14817;57.104;-2.094;2022-12-20T17:27:09;12.63;;;3.78;;
27333;SDS011;14817;57.104;-2.094;2022-12-20T17:29:36;10.85;;;3.17;;
27333;SDS011;14817;57.104;-2.094;2022-12-20T17:32:09;12.10;;;3.05;;
27333;SDS011;14817;57.104;-2.094;2022-12-20T17:34:45;13.43;;;3.30;;